North Bend, OR

1:45 PM PDT on April 24, 2018 (GMT -0700)
North Bend Municipal

Weather History for KOTH - November, 2012

Change the Weather History Date:

Tuesday, November 6, 2012

  Actual Average Record
Temperature  
Mean Temperature 55 °F 50 °F  
Max Temperature 61 °F 57 °F 76 °F (1923)
Min Temperature 48 °F 44 °F 26 °F (1920)
Degree Days  
Heating Degree Days 10 15  
Month to date heating degree days 45 85  
Since 1 July heating degree days 944 1051  
Cooling Degree Days 0 0  
Month to date cooling degree days 0 0  
Year to date cooling degree days 1 2  
Growing Degree Days 4 (Base 50)    
Moisture  
Dew Point 54 °F    
Average Humidity 98    
Maximum Humidity 100    
Minimum Humidity 93    
Precipitation  
Precipitation 0.01 in 0.30 in 2.04 in (1974)
Month to date precipitation 0.30 1.67  
Year to date precipitation 35.19 45.22  
Sea Level Pressure  
Sea Level Pressure 30.10 in    
Wind  
Wind Speed 4 mph (NW)    
Max Wind Speed 13 mph    
Max Gust Speed -    
Visibility 4 miles    
Events      
T = Trace of Precipitation, MM = Missing Value Source: NWS Daily Summary

Daily Weather History Graph

Daily Weather History Graph

Search for Another Location

Airport or City:

Astronomy

Nov. 06, 2012 Rise Set
Actual Time 6:59 AM PST 5:01 PM PST
Civil Twilight 6:29 AM PST 5:31 PM PST
Nautical Twilight 5:55 AM PST 6:05 PM PST
Astronomical Twilight 5:21 AM PST 6:38 PM PST
Moon 11:48 PM PST (11/6) 12:53 PM PST (11/6)
Length of Visible Light 11h 01m
Length of Day
10h 01m
Waning Gibbous, 52% of the Moon is Illuminated
Nov 6
Waning Gibbous
Nov 6
Last Quarter
Nov 13
New
Nov 20
First Quarter
Nov 28
Full

Hourly Weather History & Observations

Time (PST) Temp. Dew Point Humidity Pressure Visibility Wind Dir Wind Speed Gust Speed Precip Events Conditions
12:15 AM 50.0 °F 50.0 °F 100% 30.07 in 0.5 mi SE 3.5 mph - N/A   Unknown
12:35 AM 50.0 °F 48.2 °F 94% 30.06 in 0.2 mi Calm Calm - N/A   Unknown
12:55 AM 50.0 °F 50.0 °F 100% 30.06 in 0.2 mi Calm Calm - N/A   Unknown
1:15 AM 51.8 °F 51.8 °F 100% 30.06 in 0.2 mi Calm Calm - N/A   Unknown
1:35 AM 50.0 °F 50.0 °F 100% 30.06 in 0.2 mi Calm Calm - N/A   Unknown
1:55 AM 51.8 °F 51.8 °F 100% 30.06 in 0.2 mi Calm Calm - N/A   Unknown
2:15 AM 51.8 °F 51.8 °F 100% 30.06 in 0.2 mi Calm Calm - N/A   Unknown
2:35 AM 50.0 °F 50.0 °F 100% 30.06 in 0.2 mi Calm Calm - N/A   Unknown
2:55 AM 48.2 °F 48.2 °F 100% 30.06 in 0.5 mi Calm Calm - N/A   Unknown
3:15 AM 50.0 °F 50.0 °F 100% 30.06 in 0.2 mi SE 4.6 mph - N/A   Unknown
3:35 AM 48.2 °F 48.2 °F 100% 30.05 in 0.5 mi SSE 6.9 mph - N/A   Unknown
3:55 AM 48.2 °F 48.2 °F 100% 30.05 in 1.0 mi SSE 5.8 mph - N/A   Unknown
4:15 AM 48.2 °F 48.2 °F 100% 30.05 in 0.5 mi SE 4.6 mph - N/A   Unknown
4:35 AM 51.8 °F 51.8 °F 100% 30.05 in 0.8 mi ESE 6.9 mph - N/A   Unknown
4:55 AM 51.8 °F 51.8 °F 100% 30.05 in 8.0 mi ESE 6.9 mph - N/A   Unknown
5:15 AM 53.6 °F 51.8 °F 94% 30.05 in 10.0 mi SE 8.1 mph - N/A   Unknown
5:35 AM 53.6 °F 53.6 °F 100% 30.05 in 10.0 mi SE 4.6 mph - N/A   Unknown
5:55 AM 53.6 °F 51.8 °F 94% 30.06 in 10.0 mi West 8.1 mph - N/A   Unknown
6:15 AM 51.8 °F 50.0 °F 94% 30.07 in 10.0 mi WSW 4.6 mph - N/A   Unknown
6:35 AM 51.8 °F 50.0 °F 94% 30.08 in 5.0 mi Calm Calm - N/A   Unknown
6:55 AM 51.8 °F 51.8 °F 100% 30.09 in 6.0 mi Calm Calm - N/A   Unknown
7:15 AM 51.8 °F 51.8 °F 100% 30.09 in 0.2 mi Calm Calm - N/A   Unknown
7:35 AM 51.8 °F 51.8 °F 100% 30.10 in 4.0 mi SE 3.5 mph - N/A   Overcast
7:55 AM 53.6 °F 51.8 °F 94% 30.11 in 7.0 mi South 3.5 mph - N/A   Overcast
8:15 AM 53.6 °F 51.8 °F 94% 30.11 in 3.0 mi SE 4.6 mph - N/A   Unknown
8:35 AM 53.6 °F 53.6 °F 100% 30.12 in 0.2 mi Calm Calm - N/A   Unknown
8:55 AM 55.4 °F 55.4 °F 100% 30.12 in 0.2 mi Calm Calm - N/A   Unknown
9:15 AM 55.4 °F 53.6 °F 94% 30.11 in 0.2 mi SE 3.5 mph - N/A   Unknown
9:35 AM 55.4 °F 53.6 °F 94% 30.11 in 0.2 mi SE 4.6 mph - N/A   Unknown
9:55 AM 55.4 °F 55.4 °F 100% 30.11 in 0.2 mi SE 5.8 mph - N/A   Unknown
10:15 AM 55.4 °F 55.4 °F 100% 30.11 in 0.8 mi SE 3.5 mph - N/A   Unknown
10:35 AM 55.4 °F 55.4 °F 100% 30.11 in 0.8 mi SE 4.6 mph - N/A   Unknown
10:55 AM 55.4 °F 55.4 °F 100% 30.12 in 2.5 mi Calm Calm - N/A   Unknown
11:15 AM 55.4 °F 55.4 °F 100% 30.11 in 4.0 mi WNW 3.5 mph - N/A   Unknown
11:35 AM 55.4 °F 55.4 °F 100% 30.11 in 1.5 mi West 4.6 mph - N/A   Unknown
11:55 AM 55.4 °F 55.4 °F 100% 30.10 in 2.0 mi Calm Calm - N/A   Unknown
12:15 PM 57.2 °F 57.2 °F 100% 30.09 in 4.0 mi Calm Calm - N/A   Unknown
12:35 PM 57.2 °F 57.2 °F 100% 30.08 in 5.0 mi Calm Calm - N/A   Unknown
12:55 PM 57.2 °F 57.2 °F 100% 30.09 in 5.0 mi West 3.5 mph - N/A   Unknown
1:15 PM 60.8 °F 59.0 °F 94% 30.08 in 5.0 mi West 6.9 mph - N/A   Unknown
1:35 PM 59.0 °F 57.2 °F 94% 30.09 in 3.0 mi WNW 10.4 mph - N/A   Unknown
1:55 PM 57.2 °F 57.2 °F 100% 30.08 in 0.8 mi WNW 8.1 mph - N/A   Unknown
2:15 PM 55.4 °F 55.4 °F 100% 30.09 in 2.0 mi NW 9.2 mph - N/A   Unknown
2:35 PM 57.2 °F 55.4 °F 94% 30.10 in 10.0 mi NW 9.2 mph - N/A   Unknown
2:55 PM 57.2 °F 55.4 °F 94% 30.10 in 10.0 mi NW 6.9 mph - N/A   Unknown
3:15 PM 57.2 °F 55.4 °F 94% 30.10 in 10.0 mi NNW 6.9 mph - N/A   Unknown
3:35 PM 55.4 °F 55.4 °F 100% 30.10 in 10.0 mi North 5.8 mph - N/A   Unknown
3:55 PM 55.4 °F 55.4 °F 100% 30.10 in 10.0 mi North 9.2 mph - N/A   Unknown
4:15 PM 55.4 °F 55.4 °F 100% 30.10 in 6.0 mi North 5.8 mph - N/A   Unknown
4:35 PM 55.4 °F 55.4 °F 100% 30.10 in 1.8 mi North 4.6 mph - N/A   Unknown
4:55 PM 55.4 °F 55.4 °F 100% 30.10 in 2.0 mi NW 4.6 mph - N/A   Unknown
5:15 PM 55.4 °F 55.4 °F 100% 30.10 in 0.8 mi Calm Calm - N/A   Unknown
5:35 PM 55.4 °F 55.4 °F 100% 30.11 in 1.5 mi NW 3.5 mph - N/A   Unknown
5:55 PM 55.4 °F 55.4 °F 100% 30.10 in 1.2 mi Calm Calm - N/A   Unknown
6:15 PM 55.4 °F 55.4 °F 100% 30.11 in 2.0 mi Calm Calm - N/A   Unknown
6:35 PM 55.4 °F 55.4 °F 100% 30.12 in 2.0 mi Calm Calm - N/A   Unknown
6:55 PM 55.4 °F 55.4 °F 100% 30.12 in 2.0 mi Calm Calm - N/A   Unknown
7:15 PM 55.4 °F 55.4 °F 100% 30.13 in 2.0 mi WNW 3.5 mph - N/A   Unknown
7:35 PM 55.4 °F 55.4 °F 100% 30.13 in 1.5 mi WNW 3.5 mph - N/A   Unknown
7:55 PM 55.4 °F 55.4 °F 100% 30.13 in 7.0 mi NNW 9.2 mph - 0.01 in   Unknown
8:15 PM 55.4 °F 55.4 °F 100% 30.14 in 10.0 mi North 6.9 mph - N/A   Unknown
8:35 PM 55.4 °F 55.4 °F 100% 30.14 in 10.0 mi North 3.5 mph - N/A   Unknown
8:55 PM 55.4 °F 55.4 °F 100% 30.15 in 10.0 mi Calm Calm - N/A   Unknown
9:15 PM 55.4 °F 55.4 °F 100% 30.16 in 9.0 mi NW 4.6 mph - N/A   Unknown
9:35 PM 55.4 °F 55.4 °F 100% 30.16 in 4.0 mi NNW 3.5 mph - N/A   Unknown
9:55 PM 55.4 °F 55.4 °F 100% 30.17 in 5.0 mi WNW 4.6 mph - N/A   Unknown
10:15 PM 55.4 °F 55.4 °F 100% 30.17 in 5.0 mi NW 10.4 mph - N/A   Unknown
10:35 PM 55.4 °F 53.6 °F 94% 30.17 in 10.0 mi NNW 15.0 mph - N/A   Unknown
10:55 PM 53.6 °F 51.8 °F 94% 30.18 in 10.0 mi NNW 12.7 mph - N/A   Unknown
11:15 PM 53.6 °F 53.6 °F 100% 30.18 in 5.0 mi North 4.6 mph - N/A   Unknown
11:35 PM 53.6 °F 51.8 °F 94% 30.18 in 10.0 mi North 4.6 mph - N/A   Unknown
11:55 PM 53.6 °F 51.8 °F 94% 30.19 in 10.0 mi North 3.5 mph - N/A   Unknown